sensor_id;sensor_type;location;lat;lon;timestamp;P1;durP1;ratioP1;P2;durP2;ratioP2
21758;SDS011;11041;50.854;20.580;2024-03-23T00:52:36;29.05;;;19.05;;
21758;SDS011;11041;50.854;20.580;2024-03-23T00:55:02;52.55;;;41.55;;
21758;SDS011;11041;50.854;20.580;2024-03-23T00:57:33;27.85;;;17.73;;
21758;SDS011;11041;50.854;20.580;2024-03-23T00:59:59;28.45;;;18.27;;
21758;SDS011;11041;50.854;20.580;2024-03-23T01:02:26;35.90;;;18.85;;
21758;SDS011;11041;50.854;20.580;2024-03-23T01:04:52;27.95;;;18.65;;
21758;SDS011;11041;50.854;20.580;2024-03-23T01:07:20;31.27;;;18.42;;
21758;SDS011;11041;50.854;20.580;2024-03-23T01:09:49;30.45;;;19.05;;
21758;SDS011;11041;50.854;20.580;2024-03-23T01:12:17;24.42;;;16.77;;
21758;SDS011;11041;50.854;20.580;2024-03-23T01:14:45;30.77;;;17.83;;
21758;SDS011;11041;50.854;20.580;2024-03-23T01:17:14;24.85;;;16.25;;
21758;SDS011;11041;50.854;20.580;2024-03-23T01:19:41;25.73;;;16.17;;
21758;SDS011;11041;50.854;20.580;2024-03-23T01:22:08;27.20;;;17.35;;
21758;SDS011;11041;50.854;20.580;2024-03-23T01:24:35;28.42;;;17.38;;
21758;SDS011;11041;50.854;20.580;2024-03-23T01:27:02;28.48;;;17.92;;
21758;SDS011;11041;50.854;20.580;2024-03-23T01:29:29;28.33;;;17.13;;
21758;SDS011;11041;50.854;20.580;2024-03-23T01:31:55;29.20;;;17.38;;
21758;SDS011;11041;50.854;20.580;2024-03-23T01:34:25;31.38;;;17.88;;
21758;SDS011;11041;50.854;20.580;2024-03-23T01:36:52;25.42;;;17.40;;
21758;SDS011;11041;50.854;20.580;2024-03-23T01:39:18;31.00;;;17.70;;
21758;SDS011;11041;50.854;20.580;2024-03-23T01:41:45;35.30;;;19.55;;
21758;SDS011;11041;50.854;20.580;2024-03-23T01:44:11;31.00;;;19.08;;
21758;SDS011;11041;50.854;20.580;2024-03-23T01:46:43;33.35;;;20.17;;
21758;SDS011;11041;50.854;20.580;2024-03-23T01:49:12;33.17;;;21.10;;
21758;SDS011;11041;50.854;20.580;2024-03-23T01:51:42;33.92;;;20.05;;
21758;SDS011;11041;50.854;20.580;2024-03-23T01:54:10;32.60;;;21.75;;
21758;SDS011;11041;50.854;20.580;2024-03-23T01:56:41;36.67;;;21.98;;
21758;SDS011;11041;50.854;20.580;2024-03-23T01:59:08;40.35;;;25.33;;
21758;SDS011;11041;50.854;20.580;2024-03-23T02:01:34;43.00;;;25.30;;
21758;SDS011;11041;50.854;20.580;2024-03-23T02:04:01;39.08;;;24.52;;
21758;SDS011;11041;50.854;20.580;2024-03-23T02:06:29;41.33;;;24.55;;
21758;SDS011;11041;50.854;20.580;2024-03-23T02:08:58;42.30;;;25.52;;
21758;SDS011;11041;50.854;20.580;2024-03-23T02:11:25;41.65;;;23.92;;
21758;SDS011;11041;50.854;20.580;2024-03-23T02:13:54;42.65;;;23.88;;
21758;SDS011;11041;50.854;20.580;2024-03-23T02:16:23;44.75;;;24.05;;
21758;SDS011;11041;50.854;20.580;2024-03-23T02:18:50;39.58;;;23.70;;
21758;SDS011;11041;50.854;20.580;2024-03-23T02:21:18;43.13;;;23.33;;
21758;SDS011;11041;50.854;20.580;2024-03-23T02:23:44;41.92;;;23.52;;
21758;SDS011;11041;50.854;20.580;2024-03-23T02:26:11;41.42;;;23.55;;
21758;SDS011;11041;50.854;20.580;2024-03-23T02:28:40;41.42;;;22.40;;
21758;SDS011;11041;50.854;20.580;2024-03-23T02:31:07;41.67;;;25.38;;
21758;SDS011;11041;50.854;20.580;2024-03-23T02:33:33;39.75;;;23.40;;
21758;SDS011;11041;50.854;20.580;2024-03-23T02:36:03;38.85;;;23.05;;
21758;SDS011;11041;50.854;20.580;2024-03-23T02:38:30;38.53;;;22.70;;
21758;SDS011;11041;50.854;20.580;2024-03-23T02:41:01;42.60;;;23.80;;
21758;SDS011;11041;50.854;20.580;2024-03-23T02:43:31;39.10;;;23.15;;
21758;SDS011;11041;50.854;20.580;2024-03-23T02:45:58;41.75;;;24.52;;
21758;SDS011;11041;50.854;20.580;2024-03-23T02:48:26;43.20;;;23.60;;
21758;SDS011;11041;50.854;20.580;2024-03-23T02:50:52;38.13;;;22.27;;
21758;SDS011;11041;50.854;20.580;2024-03-23T02:53:19;45.53;;;24.40;;
21758;SDS011;11041;50.854;20.580;2024-03-23T02:55:47;43.45;;;24.17;;
21758;SDS011;11041;50.854;20.580;2024-03-23T02:58:13;51.35;;;26.23;;
21758;SDS011;11041;50.854;20.580;2024-03-23T03:00:40;45.83;;;25.48;;
21758;SDS011;11041;50.854;20.580;2024-03-23T03:03:09;49.75;;;26.10;;
21758;SDS011;11041;50.854;20.580;2024-03-23T03:05:35;55.42;;;28.00;;
21758;SDS011;11041;50.854;20.580;2024-03-23T03:08:03;60.20;;;28.67;;
21758;SDS011;11041;50.854;20.580;2024-03-23T03:10:31;53.65;;;29.75;;
21758;SDS011;11041;50.854;20.580;2024-03-23T03:13:04;53.28;;;28.92;;
21758;SDS011;11041;50.854;20.580;2024-03-23T03:15:32;51.92;;;29.25;;
21758;SDS011;11041;50.854;20.580;2024-03-23T03:18:04;53.25;;;29.17;;
21758;SDS011;11041;50.854;20.580;2024-03-23T03:20:32;57.22;;;30.45;;
21758;SDS011;11041;50.854;20.580;2024-03-23T03:23:05;56.47;;;29.20;;
21758;SDS011;11041;50.854;20.580;2024-03-23T03:25:35;62.03;;;31.10;;
21758;SDS011;11041;50.854;20.580;2024-03-23T03:28:01;62.70;;;31.58;;
21758;SDS011;11041;50.854;20.580;2024-03-23T03:30:29;56.30;;;31.35;;
21758;SDS011;11041;50.854;20.580;2024-03-23T03:32:56;55.25;;;29.15;;
21758;SDS011;11041;50.854;20.580;2024-03-23T03:35:22;56.53;;;29.88;;
21758;SDS011;11041;50.854;20.580;2024-03-23T03:37:52;62.88;;;28.88;;
21758;SDS011;11041;50.854;20.580;2024-03-23T03:40:19;60.47;;;30.77;;
21758;SDS011;11041;50.854;20.580;2024-03-23T03:42:45;66.57;;;32.60;;
21758;SDS011;11041;50.854;20.580;2024-03-23T03:45:14;60.40;;;30.92;;
21758;SDS011;11041;50.854;20.580;2024-03-23T03:47:40;66.10;;;31.20;;
21758;SDS011;11041;50.854;20.580;2024-03-23T03:50:08;63.35;;;31.05;;
21758;SDS011;11041;50.854;20.580;2024-03-23T03:52:35;64.00;;;32.58;;
21758;SDS011;11041;50.854;20.580;2024-03-23T03:55:02;69.90;;;32.03;;
21758;SDS011;11041;50.854;20.580;2024-03-23T03:57:31;63.38;;;32.47;;
21758;SDS011;11041;50.854;20.580;2024-03-23T03:59:58;70.32;;;32.03;;
21758;SDS011;11041;50.854;20.580;2024-03-23T04:02:24;63.45;;;31.70;;
21758;SDS011;11041;50.854;20.580;2024-03-23T04:04:52;67.15;;;32.47;;
21758;SDS011;11041;50.854;20.580;2024-03-23T04:07:18;68.97;;;31.25;;
21758;SDS011;11041;50.854;20.580;2024-03-23T04:09:48;64.10;;;31.50;;
21758;SDS011;11041;50.854;20.580;2024-03-23T04:12:15;63.40;;;30.45;;
21758;SDS011;11041;50.854;20.580;2024-03-23T04:14:42;58.33;;;31.13;;
21758;SDS011;11041;50.854;20.580;2024-03-23T04:17:08;65.57;;;30.75;;
21758;SDS011;11041;50.854;20.580;2024-03-23T04:19:34;67.18;;;31.10;;
21758;SDS011;11041;50.854;20.580;2024-03-23T04:22:00;65.57;;;29.77;;
21758;SDS011;11041;50.854;20.580;2024-03-23T04:24:27;56.90;;;29.52;;
21758;SDS011;11041;50.854;20.580;2024-03-23T04:26:54;58.95;;;27.77;;
21758;SDS011;11041;50.854;20.580;2024-03-23T04:29:20;59.78;;;28.67;;
21758;SDS011;11041;50.854;20.580;2024-03-23T04:31:47;63.78;;;28.95;;
21758;SDS011;11041;50.854;20.580;2024-03-23T04:34:15;72.18;;;30.52;;
21758;SDS011;11041;50.854;20.580;2024-03-23T04:36:43;64.40;;;30.35;;
21758;SDS011;11041;50.854;20.580;2024-03-23T04:39:09;67.88;;;29.60;;
21758;SDS011;11041;50.854;20.580;2024-03-23T04:41:36;65.97;;;27.38;;
21758;SDS011;11041;50.854;20.580;2024-03-23T04:44:06;58.55;;;28.98;;
21758;SDS011;11041;50.854;20.580;2024-03-23T04:46:34;68.68;;;29.77;;
21758;SDS011;11041;50.854;20.580;2024-03-23T04:49:03;67.28;;;29.70;;
21758;SDS011;11041;50.854;20.580;2024-03-23T04:51:36;62.20;;;28.88;;
21758;SDS011;11041;50.854;20.580;2024-03-23T04:54:03;62.65;;;28.75;;
21758;SDS011;11041;50.854;20.580;2024-03-23T04:56:31;75.65;;;29.23;;
21758;SDS011;11041;50.854;20.580;2024-03-23T04:59:00;70.68;;;29.88;;
21758;SDS011;11041;50.854;20.580;2024-03-23T05:01:27;70.55;;;27.35;;
21758;SDS011;11041;50.854;20.580;2024-03-23T05:03:54;65.15;;;27.83;;
21758;SDS011;11041;50.854;20.580;2024-03-23T05:06:20;60.72;;;28.10;;
21758;SDS011;11041;50.854;20.580;2024-03-23T05:08:46;74.65;;;33.95;;
21758;SDS011;11041;50.854;20.580;2024-03-23T05:11:13;77.18;;;35.90;;
21758;SDS011;11041;50.854;20.580;2024-03-23T05:13:40;75.05;;;35.00;;
21758;SDS011;11041;50.854;20.580;2024-03-23T05:16:06;73.40;;;35.33;;
21758;SDS011;11041;50.854;20.580;2024-03-23T05:18:34;69.78;;;33.70;;
21758;SDS011;11041;50.854;20.580;2024-03-23T05:21:01;68.10;;;33.05;;
21758;SDS011;11041;50.854;20.580;2024-03-23T05:23:29;65.45;;;33.53;;
21758;SDS011;11041;50.854;20.580;2024-03-23T05:25:56;67.40;;;33.88;;
21758;SDS011;11041;50.854;20.580;2024-03-23T05:28:22;62.97;;;32.58;;
21758;SDS011;11041;50.854;20.580;2024-03-23T05:30:52;66.07;;;33.15;;
21758;SDS011;11041;50.854;20.580;2024-03-23T05:33:20;70.80;;;33.53;;
21758;SDS011;11041;50.854;20.580;2024-03-23T05:35:55;65.10;;;32.90;;
21758;SDS011;11041;50.854;20.580;2024-03-23T05:38:24;63.95;;;30.58;;
21758;SDS011;11041;50.854;20.580;2024-03-23T05:40:57;59.92;;;30.95;;
21758;SDS011;11041;50.854;20.580;2024-03-23T05:43:26;58.55;;;31.38;;
21758;SDS011;11041;50.854;20.580;2024-03-23T05:46:00;55.97;;;28.77;;
21758;SDS011;11041;50.854;20.580;2024-03-23T05:48:28;60.28;;;29.65;;
21758;SDS011;11041;50.854;20.580;2024-03-23T05:50:56;56.72;;;29.17;;
21758;SDS011;11041;50.854;20.580;2024-03-23T05:53:24;57.78;;;29.65;;
21758;SDS011;11041;50.854;20.580;2024-03-23T05:55:51;56.90;;;29.67;;
21758;SDS011;11041;50.854;20.580;2024-03-23T05:58:26;56.70;;;29.42;;
21758;SDS011;11041;50.854;20.580;2024-03-23T06:00:57;61.03;;;31.02;;
21758;SDS011;11041;50.854;20.580;2024-03-23T06:03:27;54.58;;;28.10;;
21758;SDS011;11041;50.854;20.580;2024-03-23T06:05:55;55.17;;;29.20;;
21758;SDS011;11041;50.854;20.580;2024-03-23T06:08:24;60.95;;;30.63;;
21758;SDS011;11041;50.854;20.580;2024-03-23T06:10:50;56.05;;;28.70;;
21758;SDS011;11041;50.854;20.580;2024-03-23T06:13:20;50.33;;;28.05;;
21758;SDS011;11041;50.854;20.580;2024-03-23T06:15:50;52.67;;;29.30;;
21758;SDS011;11041;50.854;20.580;2024-03-23T06:18:19;58.13;;;28.63;;
21758;SDS011;11041;50.854;20.580;2024-03-23T06:20:46;54.58;;;28.45;;
21758;SDS011;11041;50.854;20.580;2024-03-23T06:23:13;49.55;;;27.73;;
21758;SDS011;11041;50.854;20.580;2024-03-23T06:25:41;61.00;;;29.98;;
21758;SDS011;11041;50.854;20.580;2024-03-23T06:28:08;58.50;;;29.90;;
21758;SDS011;11041;50.854;20.580;2024-03-23T06:30:36;57.80;;;30.25;;
21758;SDS011;11041;50.854;20.580;2024-03-23T06:33:02;52.88;;;28.55;;
21758;SDS011;11041;50.854;20.580;2024-03-23T06:35:29;56.90;;;29.67;;
21758;SDS011;11041;50.854;20.580;2024-03-23T06:37:56;58.97;;;29.42;;
21758;SDS011;11041;50.854;20.580;2024-03-23T06:40:23;59.70;;;30.45;;
21758;SDS011;11041;50.854;20.580;2024-03-23T06:42:50;53.80;;;28.35;;
21758;SDS011;11041;50.854;20.580;2024-03-23T06:45:16;56.85;;;28.50;;
21758;SDS011;11041;50.854;20.580;2024-03-23T06:47:49;51.00;;;27.17;;
21758;SDS011;11041;50.854;20.580;2024-03-23T06:50:17;54.78;;;28.92;;
21758;SDS011;11041;50.854;20.580;2024-03-23T06:52:49;57.60;;;28.30;;
21758;SDS011;11041;50.854;20.580;2024-03-23T06:55:19;52.50;;;26.27;;
21758;SDS011;11041;50.854;20.580;2024-03-23T06:57:45;52.47;;;27.67;;
21758;SDS011;11041;50.854;20.580;2024-03-23T07:00:12;50.78;;;26.13;;
21758;SDS011;11041;50.854;20.580;2024-03-23T07:02:41;47.97;;;28.30;;
21758;SDS011;11041;50.854;20.580;2024-03-23T07:05:07;48.83;;;26.10;;
21758;SDS011;11041;50.854;20.580;2024-03-23T07:07:33;48.42;;;25.95;;
21758;SDS011;11041;50.854;20.580;2024-03-23T07:10:00;46.85;;;25.65;;
21758;SDS011;11041;50.854;20.580;2024-03-23T07:12:28;49.08;;;25.90;;
21758;SDS011;11041;50.854;20.580;2024-03-23T07:14:54;45.53;;;24.58;;
21758;SDS011;11041;50.854;20.580;2024-03-23T07:17:21;40.83;;;23.97;;
21758;SDS011;11041;50.854;20.580;2024-03-23T07:19:47;45.47;;;23.23;;
21758;SDS011;11041;50.854;20.580;2024-03-23T07:22:16;45.80;;;23.25;;
21758;SDS011;11041;50.854;20.580;2024-03-23T07:24:45;39.42;;;22.98;;
21758;SDS011;11041;50.854;20.580;2024-03-23T07:27:14;42.00;;;23.00;;
21758;SDS011;11041;50.854;20.580;2024-03-23T07:29:40;41.42;;;22.13;;
21758;SDS011;11041;50.854;20.580;2024-03-23T07:32:08;39.78;;;22.73;;
21758;SDS011;11041;50.854;20.580;2024-03-23T07:34:37;40.25;;;22.17;;
21758;SDS011;11041;50.854;20.580;2024-03-23T07:37:05;33.97;;;20.60;;
21758;SDS011;11041;50.854;20.580;2024-03-23T07:39:31;37.03;;;20.65;;
21758;SDS011;11041;50.854;20.580;2024-03-23T07:41:59;37.58;;;19.98;;
21758;SDS011;11041;50.854;20.580;2024-03-23T07:44:27;40.88;;;21.45;;
21758;SDS011;11041;50.854;20.580;2024-03-23T07:46:53;35.60;;;21.75;;
21758;SDS011;11041;50.854;20.580;2024-03-23T07:49:20;38.67;;;20.88;;
21758;SDS011;11041;50.854;20.580;2024-03-23T07:51:47;37.90;;;21.40;;
21758;SDS011;11041;50.854;20.580;2024-03-23T07:54:15;38.63;;;22.50;;
21758;SDS011;11041;50.854;20.580;2024-03-23T07:56:42;40.17;;;20.55;;
21758;SDS011;11041;50.854;20.580;2024-03-23T07:59:11;41.53;;;21.15;;
21758;SDS011;11041;50.854;20.580;2024-03-23T08:01:38;36.17;;;20.75;;
21758;SDS011;11041;50.854;20.580;2024-03-23T08:04:05;38.20;;;22.80;;
21758;SDS011;11041;50.854;20.580;2024-03-23T08:06:34;39.70;;;21.08;;
21758;SDS011;11041;50.854;20.580;2024-03-23T08:09:00;35.95;;;20.65;;
21758;SDS011;11041;50.854;20.580;2024-03-23T08:11:28;34.03;;;21.13;;
21758;SDS011;11041;50.854;20.580;2024-03-23T08:13:57;36.85;;;21.52;;
21758;SDS011;11041;50.854;20.580;2024-03-23T08:16:27;37.08;;;20.05;;
21758;SDS011;11041;50.854;20.580;2024-03-23T08:18:54;36.53;;;21.50;;
21758;SDS011;11041;50.854;20.580;2024-03-23T08:21:23;34.90;;;19.73;;
21758;SDS011;11041;50.854;20.580;2024-03-23T08:23:51;31.42;;;20.00;;
21758;SDS011;11041;50.854;20.580;2024-03-23T08:26:18;37.47;;;22.35;;
21758;SDS011;11041;50.854;20.580;2024-03-23T08:28:47;37.58;;;21.77;;
21758;SDS011;11041;50.854;20.580;2024-03-23T08:31:14;36.72;;;23.60;;
21758;SDS011;11041;50.854;20.580;2024-03-23T08:33:41;37.20;;;21.65;;
21758;SDS011;11041;50.854;20.580;2024-03-23T08:36:10;37.47;;;24.33;;
21758;SDS011;11041;50.854;20.580;2024-03-23T08:38:40;40.55;;;24.17;;
21758;SDS011;11041;50.854;20.580;2024-03-23T08:41:07;35.88;;;22.85;;
21758;SDS011;11041;50.854;20.580;2024-03-23T08:43:36;39.90;;;25.13;;
21758;SDS011;11041;50.854;20.580;2024-03-23T08:46:15;40.03;;;22.55;;
21758;SDS011;11041;50.854;20.580;2024-03-23T08:48:45;36.92;;;22.90;;
21758;SDS011;11041;50.854;20.580;2024-03-23T08:51:15;36.20;;;22.75;;
21758;SDS011;11041;50.854;20.580;2024-03-23T08:53:43;41.28;;;23.25;;
21758;SDS011;11041;50.854;20.580;2024-03-23T08:56:11;34.22;;;22.52;;
21758;SDS011;11041;50.854;20.580;2024-03-23T08:58:38;33.53;;;22.33;;
21758;SDS011;11041;50.854;20.580;2024-03-23T09:01:09;35.45;;;22.98;;
21758;SDS011;11041;50.854;20.580;2024-03-23T09:03:41;39.97;;;23.60;;
21758;SDS011;11041;50.854;20.580;2024-03-23T09:06:12;34.10;;;22.33;;
21758;SDS011;11041;50.854;20.580;2024-03-23T09:08:40;36.25;;;23.60;;
21758;SDS011;11041;50.854;20.580;2024-03-23T09:11:08;36.83;;;24.38;;
21758;SDS011;11041;50.854;20.580;2024-03-23T09:13:39;34.47;;;21.52;;
21758;SDS011;11041;50.854;20.580;2024-03-23T09:16:07;31.98;;;20.70;;
21758;SDS011;11041;50.854;20.580;2024-03-23T09:18:35;33.55;;;19.60;;
21758;SDS011;11041;50.854;20.580;2024-03-23T09:21:03;33.85;;;21.65;;
21758;SDS011;11041;50.854;20.580;2024-03-23T09:23:38;33.28;;;19.83;;
21758;SDS011;11041;50.854;20.580;2024-03-23T09:26:05;32.25;;;20.58;;
21758;SDS011;11041;50.854;20.580;2024-03-23T09:28:33;28.08;;;18.65;;
21758;SDS011;11041;50.854;20.580;2024-03-23T09:31:07;29.70;;;18.90;;
21758;SDS011;11041;50.854;20.580;2024-03-23T09:33:35;29.85;;;19.45;;
21758;SDS011;11041;50.854;20.580;2024-03-23T09:36:05;27.95;;;20.00;;
21758;SDS011;11041;50.854;20.580;2024-03-23T09:38:37;26.88;;;19.08;;
21758;SDS011;11041;50.854;20.580;2024-03-23T09:41:07;26.58;;;18.45;;
21758;SDS011;11041;50.854;20.580;2024-03-23T09:43:37;26.98;;;18.63;;
21758;SDS011;11041;50.854;20.580;2024-03-23T09:46:03;28.27;;;20.08;;
21758;SDS011;11041;50.854;20.580;2024-03-23T09:48:33;27.52;;;18.90;;
21758;SDS011;11041;50.854;20.580;2024-03-23T09:51:00;28.08;;;18.65;;
21758;SDS011;11041;50.854;20.580;2024-03-23T09:53:28;26.65;;;18.15;;
21758;SDS011;11041;50.854;20.580;2024-03-23T09:55:55;28.63;;;19.48;;
21758;SDS011;11041;50.854;20.580;2024-03-23T09:58:23;28.48;;;19.05;;
21758;SDS011;11041;50.854;20.580;2024-03-23T10:00:50;28.08;;;18.35;;
21758;SDS011;11041;50.854;20.580;2024-03-23T10:03:16;26.25;;;17.65;;
21758;SDS011;11041;50.854;20.580;2024-03-23T10:05:45;27.92;;;17.95;;
21758;SDS011;11041;50.854;20.580;2024-03-23T10:10:41;26.63;;;17.25;;
21758;SDS011;11041;50.854;20.580;2024-03-23T10:13:09;28.83;;;17.02;;
21758;SDS011;11041;50.854;20.580;2024-03-23T10:15:38;24.23;;;16.73;;
21758;SDS011;11041;50.854;20.580;2024-03-23T10:20:51;20.40;;;14.90;;
21758;SDS011;11041;50.854;20.580;2024-03-23T10:23:34;21.63;;;16.20;;
21758;SDS011;11041;50.854;20.580;2024-03-23T10:28:59;24.30;;;15.43;;
21758;SDS011;11041;50.854;20.580;2024-03-23T10:31:38;23.17;;;15.40;;
21758;SDS011;11041;50.854;20.580;2024-03-23T10:34:07;28.17;;;18.33;;
21758;SDS011;11041;50.854;20.580;2024-03-23T10:36:34;21.95;;;14.63;;
21758;SDS011;11041;50.854;20.580;2024-03-23T10:39:09;22.85;;;15.80;;
21758;SDS011;11041;50.854;20.580;2024-03-23T10:41:45;21.42;;;15.93;;
21758;SDS011;11041;50.854;20.580;2024-03-23T10:44:19;18.13;;;13.32;;
21758;SDS011;11041;50.854;20.580;2024-03-23T10:46:50;18.92;;;13.52;;
21758;SDS011;11041;50.854;20.580;2024-03-23T10:49:17;17.20;;;12.98;;
21758;SDS011;11041;50.854;20.580;2024-03-23T10:51:47;20.65;;;14.30;;
21758;SDS011;11041;50.854;20.580;2024-03-23T10:54:14;18.63;;;14.70;;
21758;SDS011;11041;50.854;20.580;2024-03-23T10:56:40;18.85;;;14.07;;
21758;SDS011;11041;50.854;20.580;2024-03-23T10:59:13;18.75;;;14.30;;
21758;SDS011;11041;50.854;20.580;2024-03-23T11:01:54;21.92;;;13.65;;
21758;SDS011;11041;50.854;20.580;2024-03-23T11:04:32;16.85;;;12.65;;
21758;SDS011;11041;50.854;20.580;2024-03-23T11:10:07;15.95;;;10.05;;
21758;SDS011;11041;50.854;20.580;2024-03-23T11:12:53;18.73;;;12.77;;
21758;SDS011;11041;50.854;20.580;2024-03-23T11:15:20;18.42;;;12.38;;
21758;SDS011;11041;50.854;20.580;2024-03-23T11:18:02;18.65;;;13.52;;
21758;SDS011;11041;50.854;20.580;2024-03-23T11:20:32;17.92;;;13.15;;
21758;SDS011;11041;50.854;20.580;2024-03-23T11:23:01;19.15;;;13.27;;
21758;SDS011;11041;50.854;20.580;2024-03-23T11:25:28;15.48;;;12.00;;
21758;SDS011;11041;50.854;20.580;2024-03-23T11:28:10;18.70;;;13.05;;
21758;SDS011;11041;50.854;20.580;2024-03-23T11:30:37;15.70;;;12.70;;
21758;SDS011;11041;50.854;20.580;2024-03-23T11:33:04;15.52;;;11.70;;
21758;SDS011;11041;50.854;20.580;2024-03-23T11:40:32;16.90;;;12.77;;
21758;SDS011;11041;50.854;20.580;2024-03-23T11:43:07;16.58;;;11.88;;
21758;SDS011;11041;50.854;20.580;2024-03-23T11:45:37;13.70;;;11.70;;
21758;SDS011;11041;50.854;20.580;2024-03-23T11:48:14;14.02;;;11.05;;
21758;SDS011;11041;50.854;20.580;2024-03-23T11:50:46;16.92;;;12.43;;
21758;SDS011;11041;50.854;20.580;2024-03-23T11:53:22;16.08;;;12.13;;
21758;SDS011;11041;50.854;20.580;2024-03-23T11:55:53;15.65;;;12.00;;
21758;SDS011;11041;50.854;20.580;2024-03-23T11:58:24;12.05;;;10.70;;
21758;SDS011;11041;50.854;20.580;2024-03-23T12:03:28;13.13;;;10.40;;
21758;SDS011;11041;50.854;20.580;2024-03-23T12:06:01;16.48;;;11.55;;
21758;SDS011;11041;50.854;20.580;2024-03-23T12:08:30;13.23;;;9.45;;
21758;SDS011;11041;50.854;20.580;2024-03-23T12:11:15;11.90;;;9.65;;
21758;SDS011;11041;50.854;20.580;2024-03-23T12:13:43;13.90;;;10.20;;
21758;SDS011;11041;50.854;20.580;2024-03-23T12:16:16;14.65;;;10.90;;
21758;SDS011;11041;50.854;20.580;2024-03-23T12:18:47;13.10;;;10.05;;
21758;SDS011;11041;50.854;20.580;2024-03-23T12:21:16;15.77;;;11.10;;
21758;SDS011;11041;50.854;20.580;2024-03-23T12:23:44;14.13;;;11.23;;
21758;SDS011;11041;50.854;20.580;2024-03-23T12:26:14;12.82;;;10.02;;
21758;SDS011;11041;50.854;20.580;2024-03-23T12:28:41;12.75;;;10.73;;
21758;SDS011;11041;50.854;20.580;2024-03-23T12:31:07;14.07;;;9.73;;
21758;SDS011;11041;50.854;20.580;2024-03-23T12:33:34;14.60;;;10.18;;
21758;SDS011;11041;50.854;20.580;2024-03-23T12:36:00;14.18;;;10.98;;
21758;SDS011;11041;50.854;20.580;2024-03-23T12:38:27;19.33;;;10.88;;
21758;SDS011;11041;50.854;20.580;2024-03-23T12:40:53;12.48;;;10.15;;
21758;SDS011;11041;50.854;20.580;2024-03-23T12:43:19;13.10;;;10.60;;
21758;SDS011;11041;50.854;20.580;2024-03-23T12:45:46;11.20;;;9.85;;
21758;SDS011;11041;50.854;20.580;2024-03-23T12:48:14;12.63;;;10.07;;
21758;SDS011;11041;50.854;20.580;2024-03-23T12:50:41;13.25;;;9.52;;
21758;SDS011;11041;50.854;20.580;2024-03-23T12:53:08;10.38;;;9.20;;
21758;SDS011;11041;50.854;20.580;2024-03-23T12:55:34;14.88;;;10.55;;
21758;SDS011;11041;50.854;20.580;2024-03-23T12:58:02;15.07;;;9.88;;
21758;SDS011;11041;50.854;20.580;2024-03-23T13:00:28;11.10;;;8.43;;
21758;SDS011;11041;50.854;20.580;2024-03-23T13:02:55;11.75;;;8.80;;
21758;SDS011;11041;50.854;20.580;2024-03-23T13:05:21;13.90;;;9.57;;
21758;SDS011;11041;50.854;20.580;2024-03-23T13:07:48;11.57;;;9.07;;
21758;SDS011;11041;50.854;20.580;2024-03-23T13:10:16;11.35;;;8.75;;
21758;SDS011;11041;50.854;20.580;2024-03-23T13:12:43;12.20;;;9.27;;
21758;SDS011;11041;50.854;20.580;2024-03-23T13:15:09;11.50;;;9.32;;
21758;SDS011;11041;50.854;20.580;2024-03-23T13:17:36;13.82;;;9.48;;
21758;SDS011;11041;50.854;20.580;2024-03-23T13:20:04;10.95;;;9.18;;
21758;SDS011;11041;50.854;20.580;2024-03-23T13:22:31;12.18;;;8.88;;
21758;SDS011;11041;50.854;20.580;2024-03-23T13:24:58;11.23;;;8.88;;
21758;SDS011;11041;50.854;20.580;2024-03-23T13:27:26;11.63;;;8.80;;
21758;SDS011;11041;50.854;20.580;2024-03-23T13:29:54;11.52;;;8.35;;
21758;SDS011;11041;50.854;20.580;2024-03-23T13:32:20;11.07;;;8.45;;
21758;SDS011;11041;50.854;20.580;2024-03-23T13:34:46;11.63;;;8.27;;
21758;SDS011;11041;50.854;20.580;2024-03-23T13:37:16;10.05;;;7.65;;
21758;SDS011;11041;50.854;20.580;2024-03-23T13:39:43;10.63;;;7.70;;
21758;SDS011;11041;50.854;20.580;2024-03-23T13:42:09;11.48;;;8.45;;
21758;SDS011;11041;50.854;20.580;2024-03-23T13:44:37;9.63;;;7.35;;
21758;SDS011;11041;50.854;20.580;2024-03-23T13:47:04;10.32;;;7.45;;
21758;SDS011;11041;50.854;20.580;2024-03-23T13:49:31;10.85;;;7.50;;
21758;SDS011;11041;50.854;20.580;2024-03-23T13:52:00;9.57;;;7.20;;
21758;SDS011;11041;50.854;20.580;2024-03-23T13:54:27;8.32;;;6.53;;
21758;SDS011;11041;50.854;20.580;2024-03-23T13:56:54;9.50;;;7.30;;
21758;SDS011;11041;50.854;20.580;2024-03-23T13:59:22;7.60;;;6.80;;
21758;SDS011;11041;50.854;20.580;2024-03-23T14:01:49;9.57;;;7.60;;
21758;SDS011;11041;50.854;20.580;2024-03-23T14:04:17;7.00;;;5.60;;
21758;SDS011;11041;50.854;20.580;2024-03-23T14:06:46;9.63;;;7.32;;
21758;SDS011;11041;50.854;20.580;2024-03-23T14:09:12;7.25;;;6.20;;
21758;SDS011;11041;50.854;20.580;2024-03-23T14:11:41;7.75;;;6.10;;
21758;SDS011;11041;50.854;20.580;2024-03-23T14:14:09;11.13;;;7.18;;
21758;SDS011;11041;50.854;20.580;2024-03-23T14:16:36;11.15;;;7.25;;
21758;SDS011;11041;50.854;20.580;2024-03-23T14:19:02;11.48;;;7.35;;
21758;SDS011;11041;50.854;20.580;2024-03-23T14:21:31;7.97;;;6.53;;
21758;SDS011;11041;50.854;20.580;2024-03-23T14:23:58;8.98;;;6.60;;
21758;SDS011;11041;50.854;20.580;2024-03-23T14:26:26;11.68;;;7.00;;
21758;SDS011;11041;50.854;20.580;2024-03-23T14:28:53;8.85;;;6.78;;
21758;SDS011;11041;50.854;20.580;2024-03-23T14:31:20;9.00;;;7.85;;
21758;SDS011;11041;50.854;20.580;2024-03-23T14:33:47;9.95;;;7.20;;
21758;SDS011;11041;50.854;20.580;2024-03-23T14:36:15;9.38;;;7.47;;
21758;SDS011;11041;50.854;20.580;2024-03-23T14:38:49;11.10;;;7.53;;
21758;SDS011;11041;50.854;20.580;2024-03-23T14:41:16;12.05;;;8.10;;
21758;SDS011;11041;50.854;20.580;2024-03-23T14:43:42;9.60;;;7.80;;
21758;SDS011;11041;50.854;20.580;2024-03-23T14:46:14;10.50;;;8.38;;
21758;SDS011;11041;50.854;20.580;2024-03-23T14:48:42;10.90;;;8.85;;
21758;SDS011;11041;50.854;20.580;2024-03-23T14:51:10;10.20;;;8.07;;
21758;SDS011;11041;50.854;20.580;2024-03-23T14:53:38;11.63;;;8.82;;
21758;SDS011;11041;50.854;20.580;2024-03-23T14:56:07;11.52;;;9.23;;
21758;SDS011;11041;50.854;20.580;2024-03-23T14:58:35;14.40;;;9.23;;
21758;SDS011;11041;50.854;20.580;2024-03-23T15:01:02;14.18;;;9.73;;
21758;SDS011;11041;50.854;20.580;2024-03-23T15:03:34;14.05;;;9.60;;
21758;SDS011;11041;50.854;20.580;2024-03-23T15:06:02;13.05;;;9.57;;
21758;SDS011;11041;50.854;20.580;2024-03-23T15:08:29;16.48;;;10.80;;
21758;SDS011;11041;50.854;20.580;2024-03-23T15:11:00;13.82;;;6.70;;
21758;SDS011;11041;50.854;20.580;2024-03-23T15:13:36;11.60;;;6.47;;
21758;SDS011;11041;50.854;20.580;2024-03-23T15:16:04;10.23;;;7.03;;
21758;SDS011;11041;50.854;20.580;2024-03-23T15:18:31;7.38;;;5.45;;
21758;SDS011;11041;50.854;20.580;2024-03-23T15:20:59;8.25;;;5.90;;
21758;SDS011;11041;50.854;20.580;2024-03-23T15:23:28;12.07;;;8.60;;
21758;SDS011;11041;50.854;20.580;2024-03-23T15:25:55;8.43;;;5.70;;
21758;SDS011;11041;50.854;20.580;2024-03-23T15:28:26;7.80;;;5.15;;